This is the latest recevied weather packets stored in our database for station/object WD4IXD. If no packets are shown the sender has not sent any weather packets the latest 10 day(s).
| Time | Temp. | Humidity | Pressure | Rain* | Wind** | Luminosity | Snow |
|---|---|---|---|---|---|---|---|
| 1778016615 | 1.67° C | 93% | 1013.6 hPa | 2.29 mm | - | 32 W/m² | - |
| 1778016304 | 1.67° C | 93% | 1013.7 hPa | 2.29 mm | - | 35 W/m² | - |
| 1778016015 | 2.22° C | 93% | 1013.6 hPa | 2.29 mm | - | 33 W/m² | - |
| 1778015704 | 2.22° C | 93% | 1013.5 hPa | 2.54 mm | - | 47 W/m² | - |
| 1778015415 | 2.78° C | 93% | 1013.7 hPa | 2.29 mm | - | 58 W/m² | - |
| 1778015104 | 2.78° C | 93% | 1013.8 hPa | 2.03 mm | - | 58 W/m² | - |
| 1778014804 | 2.78° C | 93% | 1013.9 hPa | 1.78 mm | - | 46 W/m² | - |
| 1778014515 | 3.33° C | 93% | 1014 hPa | 1.52 mm | - | 60 W/m² | - |
| 1778014204 | 3.33° C | 93% | 1014 hPa | 1.52 mm | - | 60 W/m² | - |
| 1778013915 | 3.33° C | 93% | 1014 hPa | 1.27 mm | - | 63 W/m² | - |
| 1778013615 | 3.89° C | 93% | 1014.2 hPa | 1.02 mm | - | 56 W/m² | - |
| 1778013304 | 3.89° C | 93% | 1014.2 hPa | 1.02 mm | - | 65 W/m² | - |
| 1778013015 | 3.89° C | 93% | 1014.3 hPa | 1.27 mm | - | 62 W/m² | - |
| 1778012704 | 3.89° C | 93% | 1014.2 hPa | 1.27 mm | - | 67 W/m² | - |
| 1778012415 | 3.89° C | 93% | 1014.2 hPa | 1.27 mm | - | 79 W/m² | - |
| 1778012104 | 4.44° C | 93% | 1014.3 hPa | 1.02 mm | - | 77 W/m² | - |
| 1778011815 | 4.44° C | 94% | 1014.4 hPa | 1.27 mm | - | 83 W/m² | - |
| 1778011504 | 4.44° C | 94% | 1014.4 hPa | 1.52 mm | - | 127 W/m² | - |
| 1778011215 | 4.44° C | 94% | 1014.4 hPa | 1.52 mm | - | 155 W/m² | - |
| 1778010904 | 3.89° C | 94% | 1014.4 hPa | 1.78 mm | - | 193 W/m² | - |
| 1778010615 | 3.89° C | 94% | 1014.3 hPa | 2.03 mm | - | 192 W/m² | - |
| 1778010304 | 3.89° C | 94% | 1014.3 hPa | 2.03 mm | - | 204 W/m² | - |
| 1778010015 | 3.89° C | 94% | 1014.3 hPa | 2.29 mm | - | 209 W/m² | - |
| 1778009704 | 3.89° C | 94% | 1014.3 hPa | 2.29 mm | - | 169 W/m² | - |
| 1778009415 | 3.89° C | 94% | 1014.4 hPa | 2.03 mm | - | 134 W/m² | - |
* Rain latest hour (hover to see other rain measurements)
** Current wind speed in m/s (hover to see current wind gust speed)